sensor_id;sensor_type;location;lat;lon;timestamp;P1;P2;P0
73825;PMS5003;64145;55.060;73.168;2023-09-07T00:01:16;5.00;2.00;0.00
73825;PMS5003;64145;55.060;73.168;2023-09-07T00:03:41;3.00;1.00;0.00
73825;PMS5003;64145;55.060;73.168;2023-09-07T00:06:07;3.00;0.00;0.00
73825;PMS5003;64145;55.060;73.168;2023-09-07T00:08:33;1.00;0.00;0.00
73825;PMS5003;64145;55.060;73.168;2023-09-07T00:11:08;2.00;2.00;0.00
73825;PMS5003;64145;55.060;73.168;2023-09-07T00:13:34;2.00;1.00;0.00
73825;PMS5003;64145;55.060;73.168;2023-09-07T00:16:00;2.00;2.00;0.00
73825;PMS5003;64145;55.060;73.168;2023-09-07T00:18:27;3.00;3.00;0.00
73825;PMS5003;64145;55.060;73.168;2023-09-07T00:20:52;2.00;2.00;0.00
73825;PMS5003;64145;55.060;73.168;2023-09-07T00:23:18;2.00;1.00;0.00
73825;PMS5003;64145;55.060;73.168;2023-09-07T00:25:45;1.00;1.00;0.00
73825;PMS5003;64145;55.060;73.168;2023-09-07T00:28:10;3.00;3.00;0.00
73825;PMS5003;64145;55.060;73.168;2023-09-07T00:30:36;1.00;1.00;0.00
73825;PMS5003;64145;55.060;73.168;2023-09-07T00:33:02;1.00;1.00;0.00
73825;PMS5003;64145;55.060;73.168;2023-09-07T00:35:27;1.00;0.00;0.00
73825;PMS5003;64145;55.060;73.168;2023-09-07T00:37:53;2.67;2.00;0.00
73825;PMS5003;64145;55.060;73.168;2023-09-07T00:40:20;3.00;2.00;0.00
73825;PMS5003;64145;55.060;73.168;2023-09-07T00:42:45;1.00;1.00;0.00
73825;PMS5003;64145;55.060;73.168;2023-09-07T00:45:11;2.67;1.67;0.00
73825;PMS5003;64145;55.060;73.168;2023-09-07T00:47:36;2.00;2.00;0.00
73825;PMS5003;64145;55.060;73.168;2023-09-07T00:50:05;2.00;0.50;0.00
73825;PMS5003;64145;55.060;73.168;2023-09-07T00:52:31;1.00;1.00;0.00
73825;PMS5003;64145;55.060;73.168;2023-09-07T00:54:57;3.00;3.00;0.00
73825;PMS5003;64145;55.060;73.168;2023-09-07T00:57:24;2.00;1.00;0.00
73825;PMS5003;64145;55.060;73.168;2023-09-07T00:59:50;2.00;1.00;0.00
73825;PMS5003;64145;55.060;73.168;2023-09-07T01:02:15;3.00;2.00;0.00
73825;PMS5003;64145;55.060;73.168;2023-09-07T01:04:41;2.00;1.00;0.00
73825;PMS5003;64145;55.060;73.168;2023-09-07T01:07:14;1.00;1.00;0.00
73825;PMS5003;64145;55.060;73.168;2023-09-07T01:09:42;1.00;1.00;0.00
73825;PMS5003;64145;55.060;73.168;2023-09-07T01:12:24;1.00;1.00;0.00
73825;PMS5003;64145;55.060;73.168;2023-09-07T01:14:49;1.67;1.33;0.00
73825;PMS5003;64145;55.060;73.168;2023-09-07T01:17:15;1.00;0.00;0.00
73825;PMS5003;64145;55.060;73.168;2023-09-07T01:19:40;1.00;0.00;0.00
73825;PMS5003;64145;55.060;73.168;2023-09-07T01:22:09;1.00;1.00;0.00
73825;PMS5003;64145;55.060;73.168;2023-09-07T01:24:36;0.00;0.00;0.00
73825;PMS5003;64145;55.060;73.168;2023-09-07T01:27:02;1.25;1.25;0.00
73825;PMS5003;64145;55.060;73.168;2023-09-07T01:29:29;2.25;1.00;0.00
73825;PMS5003;64145;55.060;73.168;2023-09-07T01:31:55;1.33;0.00;0.00
73825;PMS5003;64145;55.060;73.168;2023-09-07T01:34:20;1.00;1.00;0.00
73825;PMS5003;64145;55.060;73.168;2023-09-07T01:36:46;1.00;1.00;0.00
73825;PMS5003;64145;55.060;73.168;2023-09-07T01:39:11;1.00;0.00;0.00
73825;PMS5003;64145;55.060;73.168;2023-09-07T01:41:37;1.33;0.00;0.00
73825;PMS5003;64145;55.060;73.168;2023-09-07T01:44:03;1.00;0.00;0.00
73825;PMS5003;64145;55.060;73.168;2023-09-07T01:46:28;1.00;1.00;0.00
73825;PMS5003;64145;55.060;73.168;2023-09-07T01:48:54;1.00;1.00;0.00
73825;PMS5003;64145;55.060;73.168;2023-09-07T01:51:19;1.00;0.00;0.00
73825;PMS5003;64145;55.060;73.168;2023-09-07T01:53:47;0.00;0.00;0.00
73825;PMS5003;64145;55.060;73.168;2023-09-07T01:56:12;1.00;1.00;0.00
73825;PMS5003;64145;55.060;73.168;2023-09-07T01:58:38;1.00;1.00;0.00
73825;PMS5003;64145;55.060;73.168;2023-09-07T02:01:04;1.00;1.00;0.00
73825;PMS5003;64145;55.060;73.168;2023-09-07T02:03:29;0.00;0.00;0.00
73825;PMS5003;64145;55.060;73.168;2023-09-07T02:05:56;1.00;0.00;0.00
73825;PMS5003;64145;55.060;73.168;2023-09-07T02:08:21;1.00;0.00;0.00
73825;PMS5003;64145;55.060;73.168;2023-09-07T02:10:47;1.67;1.00;0.00
73825;PMS5003;64145;55.060;73.168;2023-09-07T02:13:13;2.00;2.00;0.00
73825;PMS5003;64145;55.060;73.168;2023-09-07T02:15:38;2.00;1.00;0.00
73825;PMS5003;64145;55.060;73.168;2023-09-07T02:18:04;1.00;0.00;0.00
73825;PMS5003;64145;55.060;73.168;2023-09-07T02:20:34;1.00;0.00;0.00
73825;PMS5003;64145;55.060;73.168;2023-09-07T02:22:59;2.00;1.00;0.00
73825;PMS5003;64145;55.060;73.168;2023-09-07T02:25:26;2.50;1.50;0.00
73825;PMS5003;64145;55.060;73.168;2023-09-07T02:27:52;10.00;8.50;2.75
73825;PMS5003;64145;55.060;73.168;2023-09-07T02:30:18;5.67;5.67;3.33
73825;PMS5003;64145;55.060;73.168;2023-09-07T02:32:44;5.67;5.00;2.00
73825;PMS5003;64145;55.060;73.168;2023-09-07T02:35:09;3.00;3.00;0.00
73825;PMS5003;64145;55.060;73.168;2023-09-07T02:37:35;4.00;3.00;0.00
73825;PMS5003;64145;55.060;73.168;2023-09-07T02:40:02;1.00;1.00;0.00
73825;PMS5003;64145;55.060;73.168;2023-09-07T02:42:32;2.25;1.25;0.00
73825;PMS5003;64145;55.060;73.168;2023-09-07T02:44:58;5.00;5.00;1.00
73825;PMS5003;64145;55.060;73.168;2023-09-07T02:47:23;3.00;3.00;0.00
73825;PMS5003;64145;55.060;73.168;2023-09-07T02:49:49;2.00;2.00;0.00
73825;PMS5003;64145;55.060;73.168;2023-09-07T02:52:14;5.67;4.67;1.67
73825;PMS5003;64145;55.060;73.168;2023-09-07T02:54:41;6.00;4.00;2.00
73825;PMS5003;64145;55.060;73.168;2023-09-07T02:57:07;6.00;4.00;1.00
73825;PMS5003;64145;55.060;73.168;2023-09-07T02:59:33;6.00;4.00;1.00
73825;PMS5003;64145;55.060;73.168;2023-09-07T03:01:58;3.00;3.00;1.00
73825;PMS5003;64145;55.060;73.168;2023-09-07T03:04:24;5.00;5.00;1.00
73825;PMS5003;64145;55.060;73.168;2023-09-07T03:06:49;3.00;3.00;1.00
73825;PMS5003;64145;55.060;73.168;2023-09-07T03:09:15;2.00;2.00;1.00
73825;PMS5003;64145;55.060;73.168;2023-09-07T03:11:42;2.00;2.00;0.00
73825;PMS5003;64145;55.060;73.168;2023-09-07T03:14:07;0.67;0.67;0.00
73825;PMS5003;64145;55.060;73.168;2023-09-07T03:16:33;1.67;1.00;0.00
73825;PMS5003;64145;55.060;73.168;2023-09-07T03:19:00;2.50;1.50;0.00
73825;PMS5003;64145;55.060;73.168;2023-09-07T03:21:25;3.00;3.00;0.00
73825;PMS5003;64145;55.060;73.168;2023-09-07T03:23:55;1.00;1.00;0.00
73825;PMS5003;64145;55.060;73.168;2023-09-07T03:26:21;0.00;0.00;0.00
73825;PMS5003;64145;55.060;73.168;2023-09-07T03:28:46;1.00;1.00;0.00
73825;PMS5003;64145;55.060;73.168;2023-09-07T03:31:12;1.00;0.00;0.00
73825;PMS5003;64145;55.060;73.168;2023-09-07T03:33:37;1.00;0.00;0.00
73825;PMS5003;64145;55.060;73.168;2023-09-07T03:36:03;1.00;1.00;0.00
73825;PMS5003;64145;55.060;73.168;2023-09-07T03:38:28;1.00;1.00;0.00
73825;PMS5003;64145;55.060;73.168;2023-09-07T03:40:54;2.00;1.00;0.00
73825;PMS5003;64145;55.060;73.168;2023-09-07T03:43:20;1.00;1.00;0.00
73825;PMS5003;64145;55.060;73.168;2023-09-07T03:45:46;1.00;0.00;0.00
73825;PMS5003;64145;55.060;73.168;2023-09-07T03:48:12;0.00;0.00;0.00
73825;PMS5003;64145;55.060;73.168;2023-09-07T03:50:37;1.00;1.00;0.00
73825;PMS5003;64145;55.060;73.168;2023-09-07T03:53:03;0.00;0.00;0.00
73825;PMS5003;64145;55.060;73.168;2023-09-07T03:55:28;0.00;0.00;0.00
73825;PMS5003;64145;55.060;73.168;2023-09-07T03:57:54;0.00;0.00;0.00
73825;PMS5003;64145;55.060;73.168;2023-09-07T04:00:21;1.00;1.00;0.00
73825;PMS5003;64145;55.060;73.168;2023-09-07T04:02:48;2.00;2.00;0.00
73825;PMS5003;64145;55.060;73.168;2023-09-07T04:05:13;4.33;4.33;0.00
73825;PMS5003;64145;55.060;73.168;2023-09-07T04:07:39;10.00;10.00;4.00
73825;PMS5003;64145;55.060;73.168;2023-09-07T04:10:05;4.00;3.67;0.67
73825;PMS5003;64145;55.060;73.168;2023-09-07T04:12:31;3.75;3.75;1.00
73825;PMS5003;64145;55.060;73.168;2023-09-07T04:14:56;6.00;6.00;2.00
73825;PMS5003;64145;55.060;73.168;2023-09-07T04:17:22;5.00;5.00;2.00
73825;PMS5003;64145;55.060;73.168;2023-09-07T04:19:48;2.00;2.00;1.00
73825;PMS5003;64145;55.060;73.168;2023-09-07T04:22:13;4.67;3.00;2.00
73825;PMS5003;64145;55.060;73.168;2023-09-07T04:24:39;4.00;3.00;1.67
73825;PMS5003;64145;55.060;73.168;2023-09-07T04:27:04;3.00;3.00;1.67
73825;PMS5003;64145;55.060;73.168;2023-09-07T04:29:30;4.00;3.00;1.00
73825;PMS5003;64145;55.060;73.168;2023-09-07T04:31:56;2.00;2.00;0.00
73825;PMS5003;64145;55.060;73.168;2023-09-07T04:34:22;4.00;3.00;0.00
73825;PMS5003;64145;55.060;73.168;2023-09-07T04:36:48;3.50;1.25;0.00
73825;PMS5003;64145;55.060;73.168;2023-09-07T04:39:13;3.67;3.33;0.00
73825;PMS5003;64145;55.060;73.168;2023-09-07T04:41:42;1.00;1.00;0.00
73825;PMS5003;64145;55.060;73.168;2023-09-07T04:44:07;1.00;0.00;0.00
73825;PMS5003;64145;55.060;73.168;2023-09-07T04:46:33;1.00;1.00;0.00
73825;PMS5003;64145;55.060;73.168;2023-09-07T04:48:58;1.00;1.00;0.00
73825;PMS5003;64145;55.060;73.168;2023-09-07T04:51:24;3.67;2.67;0.00
73825;PMS5003;64145;55.060;73.168;2023-09-07T04:53:52;3.00;2.00;0.00
73825;PMS5003;64145;55.060;73.168;2023-09-07T04:56:18;3.00;2.50;0.00
73825;PMS5003;64145;55.060;73.168;2023-09-07T04:58:45;2.50;2.00;0.00
73825;PMS5003;64145;55.060;73.168;2023-09-07T05:01:11;3.33;2.67;0.00
73825;PMS5003;64145;55.060;73.168;2023-09-07T05:03:37;2.00;2.00;0.00
73825;PMS5003;64145;55.060;73.168;2023-09-07T05:06:03;2.25;1.00;0.00
73825;PMS5003;64145;55.060;73.168;2023-09-07T05:08:29;3.00;3.00;0.00
73825;PMS5003;64145;55.060;73.168;2023-09-07T05:10:55;3.00;3.00;0.00
73825;PMS5003;64145;55.060;73.168;2023-09-07T05:13:23;2.25;1.25;0.00
73825;PMS5003;64145;55.060;73.168;2023-09-07T05:15:52;3.00;3.00;1.00
73825;PMS5003;64145;55.060;73.168;2023-09-07T05:18:32;3.50;3.25;1.50
73825;PMS5003;64145;55.060;73.168;2023-09-07T05:21:13;1.00;1.00;0.00
73825;PMS5003;64145;55.060;73.168;2023-09-07T05:23:47;2.50;2.00;0.00
73825;PMS5003;64145;55.060;73.168;2023-09-07T05:27:54;0.00;0.00;0.00
73825;PMS5003;64145;55.060;73.168;2023-09-07T05:30:20;3.33;2.00;0.00
73825;PMS5003;64145;55.060;73.168;2023-09-07T05:32:46;3.00;1.67;0.00
73825;PMS5003;64145;55.060;73.168;2023-09-07T05:35:11;4.00;3.00;0.00
73825;PMS5003;64145;55.060;73.168;2023-09-07T05:37:37;3.50;3.50;0.00
73825;PMS5003;64145;55.060;73.168;2023-09-07T05:40:03;3.00;3.00;0.00
73825;PMS5003;64145;55.060;73.168;2023-09-07T05:42:29;2.50;2.00;0.00
73825;PMS5003;64145;55.060;73.168;2023-09-07T05:44:54;4.33;3.00;0.00
73825;PMS5003;64145;55.060;73.168;2023-09-07T05:47:20;0.67;0.67;0.00
73825;PMS5003;64145;55.060;73.168;2023-09-07T05:49:45;2.00;2.00;0.00
73825;PMS5003;64145;55.060;73.168;2023-09-07T05:52:11;2.00;2.00;0.00
73825;PMS5003;64145;55.060;73.168;2023-09-07T05:54:37;4.00;4.00;0.00
73825;PMS5003;64145;55.060;73.168;2023-09-07T05:57:03;4.00;3.00;0.00
73825;PMS5003;64145;55.060;73.168;2023-09-07T05:59:28;3.00;3.00;0.00
73825;PMS5003;64145;55.060;73.168;2023-09-07T06:01:55;2.00;2.00;0.00
73825;PMS5003;64145;55.060;73.168;2023-09-07T06:04:20;1.33;1.33;0.00
73825;PMS5003;64145;55.060;73.168;2023-09-07T06:07:05;1.00;1.00;0.00
73825;PMS5003;64145;55.060;73.168;2023-09-07T06:09:33;1.00;1.00;0.00
73825;PMS5003;64145;55.060;73.168;2023-09-07T06:12:18;1.00;0.00;0.00
73825;PMS5003;64145;55.060;73.168;2023-09-07T06:14:57;1.00;1.00;0.00
73825;PMS5003;64145;55.060;73.168;2023-09-07T06:17:48;1.00;1.00;0.00
73825;PMS5003;64145;55.060;73.168;2023-09-07T06:20:28;1.00;1.00;0.00
73825;PMS5003;64145;55.060;73.168;2023-09-07T06:22:59;2.00;0.00;0.00
73825;PMS5003;64145;55.060;73.168;2023-09-07T06:25:24;1.00;1.00;0.00
73825;PMS5003;64145;55.060;73.168;2023-09-07T06:27:50;0.67;0.67;0.00
73825;PMS5003;64145;55.060;73.168;2023-09-07T06:30:15;0.00;0.00;0.00
73825;PMS5003;64145;55.060;73.168;2023-09-07T06:32:41;3.00;3.00;0.00
73825;PMS5003;64145;55.060;73.168;2023-09-07T06:35:09;2.00;2.00;0.00
73825;PMS5003;64145;55.060;73.168;2023-09-07T06:37:36;3.00;3.00;0.00
73825;PMS5003;64145;55.060;73.168;2023-09-07T06:40:02;5.00;4.00;0.00
73825;PMS5003;64145;55.060;73.168;2023-09-07T06:42:29;11.50;11.00;7.00
73825;PMS5003;64145;55.060;73.168;2023-09-07T06:44:56;7.50;5.75;3.00
73825;PMS5003;64145;55.060;73.168;2023-09-07T06:47:21;5.00;5.00;2.00
73825;PMS5003;64145;55.060;73.168;2023-09-07T06:49:47;2.00;2.00;1.00
73825;PMS5003;64145;55.060;73.168;2023-09-07T06:52:16;2.00;2.00;0.00
73825;PMS5003;64145;55.060;73.168;2023-09-07T06:54:53;1.00;1.00;0.00
73825;PMS5003;64145;55.060;73.168;2023-09-07T06:57:20;1.00;1.00;0.00
73825;PMS5003;64145;55.060;73.168;2023-09-07T06:59:46;1.00;1.00;0.00
73825;PMS5003;64145;55.060;73.168;2023-09-07T07:02:11;0.00;0.00;0.00
73825;PMS5003;64145;55.060;73.168;2023-09-07T07:04:40;3.00;2.25;0.00
73825;PMS5003;64145;55.060;73.168;2023-09-07T07:07:08;5.25;5.00;1.25
73825;PMS5003;64145;55.060;73.168;2023-09-07T07:09:34;4.00;4.00;2.00
73825;PMS5003;64145;55.060;73.168;2023-09-07T07:12:00;3.00;2.00;1.00
73825;PMS5003;64145;55.060;73.168;2023-09-07T07:14:41;3.00;3.00;0.00
73825;PMS5003;64145;55.060;73.168;2023-09-07T07:29:50;3.00;2.75;0.00
73825;PMS5003;64145;55.060;73.168;2023-09-07T07:32:17;1.25;1.00;0.00
73825;PMS5003;64145;55.060;73.168;2023-09-07T07:34:42;2.00;1.00;0.00
73825;PMS5003;64145;55.060;73.168;2023-09-07T07:37:08;1.00;0.00;0.00
73825;PMS5003;64145;55.060;73.168;2023-09-07T07:39:33;1.00;1.00;0.00
73825;PMS5003;64145;55.060;73.168;2023-09-07T07:41:59;0.00;0.00;0.00
73825;PMS5003;64145;55.060;73.168;2023-09-07T09:43:01;0.00;0.00;0.00
73825;PMS5003;64145;55.060;73.168;2023-09-07T09:45:28;1.00;0.00;0.00
73825;PMS5003;64145;55.060;73.168;2023-09-07T09:48:06;0.00;0.00;0.00
73825;PMS5003;64145;55.060;73.168;2023-09-07T09:50:32;0.00;0.00;0.00
73825;PMS5003;64145;55.060;73.168;2023-09-07T09:53:07;0.00;0.00;0.00
73825;PMS5003;64145;55.060;73.168;2023-09-07T09:55:34;0.00;0.00;0.00
73825;PMS5003;64145;55.060;73.168;2023-09-07T09:58:07;1.00;0.00;0.00
73825;PMS5003;64145;55.060;73.168;2023-09-07T10:00:34;0.00;0.00;0.00
73825;PMS5003;64145;55.060;73.168;2023-09-07T10:03:07;0.00;0.00;0.00
73825;PMS5003;64145;55.060;73.168;2023-09-07T10:05:36;0.00;0.00;0.00
73825;PMS5003;64145;55.060;73.168;2023-09-07T10:08:09;0.00;0.00;0.00
73825;PMS5003;64145;55.060;73.168;2023-09-07T10:10:37;0.00;0.00;0.00
73825;PMS5003;64145;55.060;73.168;2023-09-07T10:13:04;0.00;0.00;0.00
73825;PMS5003;64145;55.060;73.168;2023-09-07T10:15:30;0.00;0.00;0.00
73825;PMS5003;64145;55.060;73.168;2023-09-07T10:18:06;1.00;1.00;0.00
73825;PMS5003;64145;55.060;73.168;2023-09-07T10:23:14;1.00;1.00;0.00
73825;PMS5003;64145;55.060;73.168;2023-09-07T10:25:40;2.00;1.33;0.00
73825;PMS5003;64145;55.060;73.168;2023-09-07T10:28:05;2.00;1.00;0.00
73825;PMS5003;64145;55.060;73.168;2023-09-07T10:30:31;0.00;0.00;0.00
73825;PMS5003;64145;55.060;73.168;2023-09-07T10:32:59;0.00;0.00;0.00
73825;PMS5003;64145;55.060;73.168;2023-09-07T10:35:24;3.33;3.00;0.00
73825;PMS5003;64145;55.060;73.168;2023-09-07T10:37:53;1.25;1.25;0.00
73825;PMS5003;64145;55.060;73.168;2023-09-07T10:40:19;0.00;0.00;0.00
73825;PMS5003;64145;55.060;73.168;2023-09-07T10:42:44;0.50;0.50;0.00
73825;PMS5003;64145;55.060;73.168;2023-09-07T10:45:10;1.00;0.00;0.00
73825;PMS5003;64145;55.060;73.168;2023-09-07T10:47:41;1.00;0.00;0.00
73825;PMS5003;64145;55.060;73.168;2023-09-07T10:50:08;7.75;7.50;0.25
73825;PMS5003;64145;55.060;73.168;2023-09-07T10:52:41;11.00;11.00;6.00
73825;PMS5003;64145;55.060;73.168;2023-09-07T10:55:25;5.00;4.00;2.00
73825;PMS5003;64145;55.060;73.168;2023-09-07T10:58:10;2.50;2.50;1.00
73825;PMS5003;64145;55.060;73.168;2023-09-07T11:00:36;1.00;0.25;0.00
73825;PMS5003;64145;55.060;73.168;2023-09-07T11:03:08;2.50;2.50;0.50
73825;PMS5003;64145;55.060;73.168;2023-09-07T11:05:36;0.25;0.25;0.00
73825;PMS5003;64145;55.060;73.168;2023-09-07T11:08:12;2.00;2.00;0.00
73825;PMS5003;64145;55.060;73.168;2023-09-07T11:10:46;1.00;1.00;0.00
73825;PMS5003;64145;55.060;73.168;2023-09-07T11:13:11;1.00;0.00;0.00
73825;PMS5003;64145;55.060;73.168;2023-09-07T11:15:38;1.00;1.00;0.00
73825;PMS5003;64145;55.060;73.168;2023-09-07T11:18:05;0.00;0.00;0.00
73825;PMS5003;64145;55.060;73.168;2023-09-07T11:20:44;2.75;2.00;0.00
73825;PMS5003;64145;55.060;73.168;2023-09-07T11:23:23;1.50;1.00;0.00
73825;PMS5003;64145;55.060;73.168;2023-09-07T11:26:03;2.25;2.25;0.00
73825;PMS5003;64145;55.060;73.168;2023-09-07T11:28:29;1.00;1.00;0.00
73825;PMS5003;64145;55.060;73.168;2023-09-07T11:30:55;0.00;0.00;0.00
73825;PMS5003;64145;55.060;73.168;2023-09-07T11:33:21;1.67;1.00;0.00
73825;PMS5003;64145;55.060;73.168;2023-09-07T11:35:47;2.00;2.00;0.00
73825;PMS5003;64145;55.060;73.168;2023-09-07T11:38:13;3.00;3.00;0.00
73825;PMS5003;64145;55.060;73.168;2023-09-07T11:40:39;3.00;3.00;0.00
73825;PMS5003;64145;55.060;73.168;2023-09-07T11:43:05;1.00;1.00;0.00
73825;PMS5003;64145;55.060;73.168;2023-09-07T11:45:41;1.50;0.50;0.00
73825;PMS5003;64145;55.060;73.168;2023-09-07T11:48:08;6.75;5.75;2.25
73825;PMS5003;64145;55.060;73.168;2023-09-07T11:50:37;5.25;5.25;1.00
73825;PMS5003;64145;55.060;73.168;2023-09-07T11:53:03;2.50;2.50;0.00
73825;PMS5003;64145;55.060;73.168;2023-09-07T11:55:29;6.00;6.00;0.00
73825;PMS5003;64145;55.060;73.168;2023-09-07T11:57:56;5.00;5.00;0.50
73825;PMS5003;64145;55.060;73.168;2023-09-07T12:00:23;6.00;6.00;1.00
73825;PMS5003;64145;55.060;73.168;2023-09-07T12:02:49;1.75;1.00;0.00
73825;PMS5003;64145;55.060;73.168;2023-09-07T12:05:15;3.50;3.00;0.00
73825;PMS5003;64145;55.060;73.168;2023-09-07T12:07:43;4.00;2.67;0.00
73825;PMS5003;64145;55.060;73.168;2023-09-07T12:10:09;2.00;2.00;0.00
73825;PMS5003;64145;55.060;73.168;2023-09-07T12:12:41;3.00;2.00;0.00
73825;PMS5003;64145;55.060;73.168;2023-09-07T12:15:07;0.00;0.00;0.00
73825;PMS5003;64145;55.060;73.168;2023-09-07T12:17:43;0.00;0.00;0.00
73825;PMS5003;64145;55.060;73.168;2023-09-07T12:20:25;1.75;0.50;0.00
73825;PMS5003;64145;55.060;73.168;2023-09-07T12:22:51;8.00;6.67;2.33
73825;PMS5003;64145;55.060;73.168;2023-09-07T12:25:17;8.00;8.00;4.00
73825;PMS5003;64145;55.060;73.168;2023-09-07T12:27:42;4.33;4.00;2.00
73825;PMS5003;64145;55.060;73.168;2023-09-07T12:30:09;2.00;2.00;0.00
73825;PMS5003;64145;55.060;73.168;2023-09-07T12:32:38;3.00;2.00;0.00
73825;PMS5003;64145;55.060;73.168;2023-09-07T12:35:03;1.00;1.00;0.00
73825;PMS5003;64145;55.060;73.168;2023-09-07T12:37:34;1.00;1.00;0.00
73825;PMS5003;64145;55.060;73.168;2023-09-07T12:40:00;0.00;0.00;0.00
73825;PMS5003;64145;55.060;73.168;2023-09-07T12:42:25;1.00;1.00;0.00
73825;PMS5003;64145;55.060;73.168;2023-09-07T12:44:51;6.00;5.00;0.00
73825;PMS5003;64145;55.060;73.168;2023-09-07T12:47:17;4.00;3.00;0.00
73825;PMS5003;64145;55.060;73.168;2023-09-07T12:49:42;3.00;3.00;0.00
73825;PMS5003;64145;55.060;73.168;2023-09-07T12:52:08;3.00;3.00;0.00
73825;PMS5003;64145;55.060;73.168;2023-09-07T12:54:36;4.00;3.00;0.00
73825;PMS5003;64145;55.060;73.168;2023-09-07T12:57:02;2.00;2.00;0.00
73825;PMS5003;64145;55.060;73.168;2023-09-07T12:59:28;2.00;2.00;0.00
73825;PMS5003;64145;55.060;73.168;2023-09-07T13:01:54;4.00;4.00;0.00
73825;PMS5003;64145;55.060;73.168;2023-09-07T13:04:21;5.00;5.00;1.00
73825;PMS5003;64145;55.060;73.168;2023-09-07T13:06:46;5.00;5.00;1.00
73825;PMS5003;64145;55.060;73.168;2023-09-07T13:09:12;7.67;6.33;2.67
73825;PMS5003;64145;55.060;73.168;2023-09-07T13:11:38;7.00;6.00;3.00
73825;PMS5003;64145;55.060;73.168;2023-09-07T13:14:04;8.75;7.75;4.50
73825;PMS5003;64145;55.060;73.168;2023-09-07T13:16:30;11.00;9.00;5.00
73825;PMS5003;64145;55.060;73.168;2023-09-07T13:18:57;27.50;23.50;16.50
73825;PMS5003;64145;55.060;73.168;2023-09-07T13:21:23;43.00;35.00;24.33
73825;PMS5003;64145;55.060;73.168;2023-09-07T13:23:49;42.67;34.00;22.67
73825;PMS5003;64145;55.060;73.168;2023-09-07T13:26:14;32.33;28.67;21.00
73825;PMS5003;64145;55.060;73.168;2023-09-07T13:28:40;30.00;26.00;19.00
73825;PMS5003;64145;55.060;73.168;2023-09-07T13:31:06;30.67;28.33;18.00
73825;PMS5003;64145;55.060;73.168;2023-09-07T13:33:34;34.00;31.00;21.00
73825;PMS5003;64145;55.060;73.168;2023-09-07T13:36:07;39.50;32.25;21.00
73825;PMS5003;64145;55.060;73.168;2023-09-07T13:38:42;49.00;40.75;27.00
73825;PMS5003;64145;55.060;73.168;2023-09-07T13:41:09;71.00;61.50;40.25
73825;PMS5003;64145;55.060;73.168;2023-09-07T13:43:45;78.50;73.50;46.00
73825;PMS5003;64145;55.060;73.168;2023-09-07T13:46:11;132.67;123.00;76.67
73825;PMS5003;64145;55.060;73.168;2023-09-07T13:48:37;164.00;151.00;98.00
73825;PMS5003;64145;55.060;73.168;2023-09-07T13:51:04;182.50;166.50;102.25
73825;PMS5003;64145;55.060;73.168;2023-09-07T13:53:31;149.00;134.25;81.50
73825;PMS5003;64145;55.060;73.168;2023-09-07T13:56:02;106.50;98.25;59.75
73825;PMS5003;64145;55.060;73.168;2023-09-07T13:58:39;91.25;84.00;52.50
73825;PMS5003;64145;55.060;73.168;2023-09-07T14:01:05;82.50;76.25;49.00
73825;PMS5003;64145;55.060;73.168;2023-09-07T14:03:43;85.75;78.50;49.00
73825;PMS5003;64145;55.060;73.168;2023-09-07T14:06:20;78.50;72.00;45.00
73825;PMS5003;64145;55.060;73.168;2023-09-07T14:08:52;74.50;63.75;41.50
73825;PMS5003;64145;55.060;73.168;2023-09-07T14:11:19;73.50;60.75;39.00
73825;PMS5003;64145;55.060;73.168;2023-09-07T14:13:46;67.00;53.67;35.67
73825;PMS5003;64145;55.060;73.168;2023-09-07T14:16:12;67.00;53.50;35.00
73825;PMS5003;64145;55.060;73.168;2023-09-07T14:18:50;61.00;50.00;33.00
73825;PMS5003;64145;55.060;73.168;2023-09-07T14:21:29;59.00;48.00;32.00
73825;PMS5003;64145;55.060;73.168;2023-09-07T14:24:14;54.00;43.75;28.75
73825;PMS5003;64145;55.060;73.168;2023-09-07T14:26:40;47.33;39.33;27.00
73825;PMS5003;64145;55.060;73.168;2023-09-07T14:29:06;58.25;45.50;29.75
73825;PMS5003;64145;55.060;73.168;2023-09-07T14:31:34;70.75;58.00;36.00
73825;PMS5003;64145;55.060;73.168;2023-09-07T14:34:00;69.67;59.33;38.00
73825;PMS5003;64145;55.060;73.168;2023-09-07T14:36:25;73.33;64.67;43.67
73825;PMS5003;64145;55.060;73.168;2023-09-07T14:38:51;75.33;66.33;45.00
73825;PMS5003;64145;55.060;73.168;2023-09-07T14:41:16;74.00;64.33;41.00
73825;PMS5003;64145;55.060;73.168;2023-09-07T14:43:47;66.00;51.75;33.75
73825;PMS5003;64145;55.060;73.168;2023-09-07T14:46:13;62.00;49.00;32.00
73825;PMS5003;64145;55.060;73.168;2023-09-07T14:48:38;54.00;43.33;28.33
73825;PMS5003;64145;55.060;73.168;2023-09-07T14:51:04;59.67;46.33;32.00
73825;PMS5003;64145;55.060;73.168;2023-09-07T14:53:29;51.00;41.00;27.00
73825;PMS5003;64145;55.060;73.168;2023-09-07T14:55:56;52.00;41.67;27.00
73825;PMS5003;64145;55.060;73.168;2023-09-07T14:58:21;66.25;54.50;37.75
73825;PMS5003;64145;55.060;73.168;2023-09-07T15:00:47;67.00;57.33;40.00
73825;PMS5003;64145;55.060;73.168;2023-09-07T15:03:12;65.67;55.00;38.00
73825;PMS5003;64145;55.060;73.168;2023-09-07T15:05:38;63.00;51.00;35.00
73825;PMS5003;64145;55.060;73.168;2023-09-07T15:08:04;70.00;59.33;41.67
73825;PMS5003;64145;55.060;73.168;2023-09-07T15:10:32;66.50;54.25;38.25
73825;PMS5003;64145;55.060;73.168;2023-09-07T15:12:59;59.25;47.00;32.00
73825;PMS5003;64145;55.060;73.168;2023-09-07T15:15:28;60.00;48.00;32.75
73825;PMS5003;64145;55.060;73.168;2023-09-07T15:17:54;60.50;49.00;34.25
73825;PMS5003;64145;55.060;73.168;2023-09-07T15:20:19;64.00;51.33;36.00
73825;PMS5003;64145;55.060;73.168;2023-09-07T15:22:45;65.67;52.67;38.33
73825;PMS5003;64145;55.060;73.168;2023-09-07T15:25:10;67.00;57.00;41.67
73825;PMS5003;64145;55.060;73.168;2023-09-07T15:27:36;67.33;57.00;40.33
73825;PMS5003;64145;55.060;73.168;2023-09-07T15:30:01;63.00;50.00;34.33
73825;PMS5003;64145;55.060;73.168;2023-09-07T15:32:28;71.25;62.00;41.25
73825;PMS5003;64145;55.060;73.168;2023-09-07T15:34:53;76.67;71.00;47.00
73825;PMS5003;64145;55.060;73.168;2023-09-07T15:37:19;76.33;71.33;46.33
73825;PMS5003;64145;55.060;73.168;2023-09-07T15:39:45;79.00;76.00;50.00
73825;PMS5003;64145;55.060;73.168;2023-09-07T15:42:10;75.00;70.00;46.33
73825;PMS5003;64145;55.060;73.168;2023-09-07T15:44:36;72.33;64.67;44.33
73825;PMS5003;64145;55.060;73.168;2023-09-07T15:47:01;71.00;62.33;44.00
73825;PMS5003;64145;55.060;73.168;2023-09-07T15:49:27;69.00;58.67;41.00
73825;PMS5003;64145;55.060;73.168;2023-09-07T15:51:54;64.50;52.50;37.00
73825;PMS5003;64145;55.060;73.168;2023-09-07T15:54:20;67.00;54.67;38.00
73825;PMS5003;64145;55.060;73.168;2023-09-07T15:56:45;71.00;62.67;42.00
73825;PMS5003;64145;55.060;73.168;2023-09-07T15:59:11;74.33;68.00;45.00
73825;PMS5003;64145;55.060;73.168;2023-09-07T16:01:36;71.33;62.67;44.00
73825;PMS5003;64145;55.060;73.168;2023-09-07T16:04:02;68.33;60.00;41.00
73825;PMS5003;64145;55.060;73.168;2023-09-07T16:06:28;67.50;55.50;36.00
73825;PMS5003;64145;55.060;73.168;2023-09-07T16:08:54;66.67;54.33;34.67
73825;PMS5003;64145;55.060;73.168;2023-09-07T16:11:19;66.33;54.33;36.00
73825;PMS5003;64145;55.060;73.168;2023-09-07T16:13:45;67.33;55.67;36.67
73825;PMS5003;64145;55.060;73.168;2023-09-07T16:16:10;68.33;56.67;38.67
73825;PMS5003;64145;55.060;73.168;2023-09-07T16:18:36;73.33;68.00;43.67